首页
METAR-TAF:

METAR-TAF

机场 :

Philip Billard Municipal Airport

托皮卡, 堪薩斯州, 美国

纬度: 39-04-21N, 经度: 095-37-33W, 海拔: 268米

当前天气观测

该预报发布于43分钟前的02:53 UTC
风速3节,风向西转西北
温度 5°C
湿度 41%
气压 1019 hPa
能見度: 16.1公里
多云层高于3500英尺
阴天层高于4200英尺

METAR: KTOP 140253Z AUTO 29003KT 10SM BKN035 OVC042 05/M07 A3010 RMK AO2 SLP199 T00501067 51023

时间: 21:36 (03:36 UTC)

预报

该预报发布于4小时和16分钟前的23:20 UTC
预报有效从14日的 00点(UTC)到 14日的 24点(UTC)
风速5节,风向西转西北
能見度: 10公里
多云层高于20000英尺
从 14日的 0200点(UTC)
风速6节,风向西北
能見度: 10公里
多云层高于3500英尺
从 14日的 1200点(UTC)
风速6节,风向北转西北
能見度: 10公里
散云层高于3500英尺

TAF: KTOP 132320Z 1400/1424 30005KT P6SM BKN200 FM140200 32006KT P6SM BKN035 FM141200 33006KT P6SM SCT035

超过4000个机场的气象观测和天气预报(METAR&TAF报告)。

可查询的气象台以黄色和红色小点在地图上表示。

将鼠标移到小点上方,可查看气象台名称。

然后点击查看天气观测和预报。

如需切换地图:点击带黑十字的绿色按钮放大地图;点击带横线的绿色按钮缩小地图;或者点击绿色箭头查看邻近地区的地图。


METAR-TAF: